Dace Reinauer — WCW8843 — position and weather

sailwx.info

Track history (hours):
 
Tides and Currents Weather Stations Pressure Air Temp Water Temp Dewpoint Dewpoint Depression Visibility Wind Speed Wind Dir Waves Ship Positions

Dace Reinauer

Owner: REINAUER TRANSPORTATION CO.LLC., STATEN ISLAND, NY. More information available from US FCC via Universal Licensing System and Coast Guard Vessel Documentation Center.

Last reported at 2018-Jan-18 05:30 UTC. Time now 2018-Jan-18 08:09 UTC.
Position N 40°47' W 073°54'.

Length 117 m; draft 4.4 m.

Type: . MMSI: 366238710.

Date/timePositionNaut miles runAvg speedWind from/ knotsBaromVisibWave heightAir tempDewpointWater temp
2018-Jan-18 05:30N 40°47' W 073°54'0 0.0
2018-Jan-18 05:00N 40°47' W 073°54'0 0.0
2018-Jan-18 04:30N 40°47' W 073°54'0 0.0
2018-Jan-18 04:00N 40°47' W 073°54'0 0.0
2018-Jan-18 03:30N 40°47' W 073°54'0 0.1
2018-Jan-18 03:00N 40°47' W 073°54'1 2.2
2018-Jan-18 02:29N 40°48' W 073°54'4 8.3
2018-Jan-18 02:00N 40°45' W 073°58'4 8.8
2018-Jan-18 01:30N 40°41' W 074°01'3 7.0
2018-Jan-18 01:00N 40°39' W 074°03'1 1.3
2018-Jan-18 00:00N 40°37' W 074°03'0 0.1
2018-Jan-17 23:57N 40°37' W 074°03'  
2018-Jan-12 15:00N 40°39' W 074°03'0 0.0
2018-Jan-12 14:28N 40°39' W 074°03'0 0.0
2018-Jan-12 13:58N 40°39' W 074°03'0 0.0
2018-Jan-12 13:28N 40°39' W 074°03'0 0.0
2018-Jan-12 12:58N 40°39' W 074°03'0 0.0
2018-Jan-12 12:28N 40°39' W 074°03'0 0.0
2018-Jan-12 11:58N 40°39' W 074°03'0 0.0
2018-Jan-12 11:28N 40°39' W 074°03'0 0.0
2018-Jan-12 10:58N 40°39' W 074°03'0 0.0
2018-Jan-12 10:28N 40°39' W 074°03'0 0.0
2018-Jan-12 09:58N 40°39' W 074°03'0 0.1
2018-Jan-12 09:28N 40°39' W 074°03'0 0.0
2018-Jan-12 08:58N 40°39' W 074°02'0 0.0
2018-Jan-12 08:28N 40°39' W 074°03'0 0.1
2018-Jan-12 07:58N 40°39' W 074°03'0 0.0
2018-Jan-12 07:28N 40°39' W 074°03'0 0.0
2018-Jan-12 06:58N 40°39' W 074°03'0 0.2
2018-Jan-12 06:28N 40°39' W 074°03'0 0.1
2018-Jan-12 06:01N 40°39' W 074°03'0 0.1
2018-Jan-12 05:28N 40°39' W 074°03'0 0.0
2018-Jan-12 04:58N 40°39' W 074°03'0 0.0
2018-Jan-12 04:28N 40°39' W 074°03'0 0.0
2018-Jan-12 03:58N 40°39' W 074°03'0 0.0
2018-Jan-12 03:28N 40°39' W 074°03'0 0.0
2018-Jan-12 02:58N 40°39' W 074°03'0 0.0
2018-Jan-12 02:28N 40°39' W 074°03'0 0.0
2018-Jan-12 01:58N 40°39' W 074°03'0 0.0
2018-Jan-12 01:31N 40°39' W 074°03'3 5.5
2018-Jan-12 01:01N 40°41' W 074°01'7010.3
2018-Jan-11 18:12N 41°08' W 072°34'2 9.9
2018-Jan-11 18:00N 41°08' W 072°32'5 9.6
2018-Jan-11 17:30N 41°09' W 072°25'4 8.7
2018-Jan-11 17:00N 41°11' W 072°20'4 8.4
2018-Jan-11 16:30N 41°12' W 072°15'47 8.8
2018-Jan-11 11:10N 41°34' W 071°19'311.2
2018-Jan-11 10:54N 41°37' W 071°18'410.7
2018-Jan-11 10:30N 41°41' W 071°19'5 9.4
2018-Jan-11 10:00N 41°45' W 071°22'4 7.1
2018-Jan-11 09:30N 41°48' W 071°24'0 0.3
2018-Jan-11 08:54N 41°48' W 071°24'0 0.1
2018-Jan-11 08:30N 41°48' W 071°24'0 0.0
2018-Jan-11 07:59N 41°48' W 071°24'0 0.0
2018-Jan-11 07:30N 41°48' W 071°24'0 0.0
2018-Jan-11 07:00N 41°48' W 071°24'0 0.0
2018-Jan-11 06:29N 41°48' W 071°24'0 0.0
2018-Jan-11 03:38N 41°48' W 071°24'0 0.0
2018-Jan-11 02:32N 41°48' W 071°24'0 0.0
2018-Jan-11 02:26N 41°48' W 071°24'0 0.0
2018-Jan-11 01:50N 41°48' W 071°24'0 0.0
2018-Jan-11 01:26N 41°48' W 071°24'0 0.0
2018-Jan-11 00:56N 41°48' W 071°24'0 0.0
2018-Jan-11 00:26N 41°48' W 071°24'0 0.0
2018-Jan-10 23:56N 41°48' W 071°24'0 0.0
2018-Jan-10 23:26N 41°48' W 071°24'0 0.0
2018-Jan-10 22:44N 41°48' W 071°24'0 0.0
2018-Jan-10 22:20N 41°48' W 071°24'0 0.0
2018-Jan-10 20:57N 41°48' W 071°24'1 1.9
2018-Jan-10 20:30N 41°49' W 071°24'0 0.1
2018-Jan-10 19:48N 41°49' W 071°24'0 0.0
2018-Jan-10 19:30N 41°49' W 071°24'0 0.0
2018-Jan-10 19:00N 41°49' W 071°24'0 0.0
2018-Jan-10 18:30N 41°49' W 071°24'0 0.0
2018-Jan-10 18:00N 41°49' W 071°24'0 0.0
2018-Jan-10 17:30N 41°49' W 071°24'0 0.0
2018-Jan-10 17:00N 41°49' W 071°24'1 0.5
2018-Jan-10 15:30N 41°48' W 071°24'0 0.1
2018-Jan-10 15:00N 41°48' W 071°24'1 2.4
2018-Jan-10 14:29N 41°47' W 071°23'4 7.9
2018-Jan-10 14:00N 41°44' W 071°21'4 8.5
2018-Jan-10 13:30N 41°40' W 071°19'5 8.4
2018-Jan-10 12:57N 41°35' W 071°18'4 9.0
2018-Jan-10 12:28N 41°31' W 071°20'126 8.3
2018-Jan-09 21:10N 40°46' W 073°57'1 9.1
2018-Jan-09 21:01N 40°44' W 073°58'4 8.6
2018-Jan-09 20:31N 40°41' W 074°01'4 8.4
2018-Jan-09 19:59N 40°39' W 074°06'4 0.1
2018-Jan-08 17:04N 40°39' W 074°11'4 8.9
2018-Jan-08 16:34N 40°39' W 074°06'1 9.7
2018-Jan-08 16:29N 40°39' W 074°05'2 4.3
2018-Jan-08 15:59N 40°40' W 074°02'0 0.1
2018-Jan-08 15:26N 40°40' W 074°02'0 0.1
2018-Jan-08 14:59N 40°40' W 074°02'0 0.1
2018-Jan-08 14:29N 40°40' W 074°02'0 0.1
2018-Jan-08 13:56N 40°40' W 074°02'0 0.1
2018-Jan-08 13:26N 40°40' W 074°02'0 0.1
2018-Jan-08 12:59N 40°40' W 074°02'0 0.1
2018-Jan-08 12:29N 40°40' W 074°02'0 0.0
2018-Jan-08 11:56N 40°40' W 074°02'0 0.0
2018-Jan-08 11:29N 40°40' W 074°02'0 0.1
2018-Jan-08 10:59N 40°40' W 074°02'0 0.1
2018-Jan-08 10:29N 40°40' W 074°02'0 0.1
2018-Jan-08 09:59N 40°40' W 074°02'0 0.1
2018-Jan-08 09:29N 40°40' W 074°02'0 0.0
2018-Jan-08 08:59N 40°40' W 074°02'0 0.1
2018-Jan-08 08:23N 40°40' W 074°02'0 0.0
2018-Jan-08 07:59N 40°40' W 074°02'0 0.0
2018-Jan-08 07:29N 40°40' W 074°02'0 0.0
2018-Jan-08 06:56N 40°40' W 074°02'0 0.0
2018-Jan-08 06:26N 40°40' W 074°02'0 0.0
2018-Jan-08 05:59N 40°40' W 074°02'  
Track history (hours):
 
Tides and Currents Weather Stations Pressure Air Temp Water Temp Dewpoint Dewpoint Depression Visibility Wind Speed Wind Dir Waves Ship Positions

Dace Reinauer

Owner: REINAUER TRANSPORTATION CO.LLC., STATEN ISLAND, NY. More information available from US FCC via Universal Licensing System and Coast Guard Vessel Documentation Center.

Last reported at 2018-Jan-18 05:30 UTC. Time now 2018-Jan-18 08:09 UTC.
Position N 40°47' W 073°54'.

Length 117 m; draft 4.4 m.

Type: . MMSI: 366238710.

Date/timePositionNaut miles runAvg speedWind from/ knotsBaromVisibWave heightAir tempDewpointWater temp
2018-Jan-18 05:30N 40°47' W 073°54'0 0.0
2018-Jan-18 05:00N 40°47' W 073°54'0 0.0
2018-Jan-18 04:30N 40°47' W 073°54'0 0.0
2018-Jan-18 04:00N 40°47' W 073°54'0 0.0
2018-Jan-18 03:30N 40°47' W 073°54'0 0.1
2018-Jan-18 03:00N 40°47' W 073°54'1 2.2
2018-Jan-18 02:29N 40°48' W 073°54'4 8.3
2018-Jan-18 02:00N 40°45' W 073°58'4 8.8
2018-Jan-18 01:30N 40°41' W 074°01'3 7.0
2018-Jan-18 01:00N 40°39' W 074°03'1 1.3
2018-Jan-18 00:00N 40°37' W 074°03'0 0.1
2018-Jan-17 23:57N 40°37' W 074°03'  
2018-Jan-12 15:00N 40°39' W 074°03'0 0.0
2018-Jan-12 14:28N 40°39' W 074°03'0 0.0
2018-Jan-12 13:58N 40°39' W 074°03'0 0.0
2018-Jan-12 13:28N 40°39' W 074°03'0 0.0
2018-Jan-12 12:58N 40°39' W 074°03'0 0.0
2018-Jan-12 12:28N 40°39' W 074°03'0 0.0
2018-Jan-12 11:58N 40°39' W 074°03'0 0.0
2018-Jan-12 11:28N 40°39' W 074°03'0 0.0
2018-Jan-12 10:58N 40°39' W 074°03'0 0.0
2018-Jan-12 10:28N 40°39' W 074°03'0 0.0
2018-Jan-12 09:58N 40°39' W 074°03'0 0.1
2018-Jan-12 09:28N 40°39' W 074°03'0 0.0
2018-Jan-12 08:58N 40°39' W 074°02'0 0.0
2018-Jan-12 08:28N 40°39' W 074°03'0 0.1
2018-Jan-12 07:58N 40°39' W 074°03'0 0.0
2018-Jan-12 07:28N 40°39' W 074°03'0 0.0
2018-Jan-12 06:58N 40°39' W 074°03'0 0.2
2018-Jan-12 06:28N 40°39' W 074°03'0 0.1
2018-Jan-12 06:01N 40°39' W 074°03'0 0.1
2018-Jan-12 05:28N 40°39' W 074°03'0 0.0
2018-Jan-12 04:58N 40°39' W 074°03'0 0.0
2018-Jan-12 04:28N 40°39' W 074°03'0 0.0
2018-Jan-12 03:58N 40°39' W 074°03'0 0.0
2018-Jan-12 03:28N 40°39' W 074°03'0 0.0
2018-Jan-12 02:58N 40°39' W 074°03'0 0.0
2018-Jan-12 02:28N 40°39' W 074°03'0 0.0
2018-Jan-12 01:58N 40°39' W 074°03'0 0.0
2018-Jan-12 01:31N 40°39' W 074°03'3 5.5
2018-Jan-12 01:01N 40°41' W 074°01'7010.3
2018-Jan-11 18:12N 41°08' W 072°34'2 9.9
2018-Jan-11 18:00N 41°08' W 072°32'5 9.6
2018-Jan-11 17:30N 41°09' W 072°25'4 8.7
2018-Jan-11 17:00N 41°11' W 072°20'4 8.4
2018-Jan-11 16:30N 41°12' W 072°15'47 8.8
2018-Jan-11 11:10N 41°34' W 071°19'311.2
2018-Jan-11 10:54N 41°37' W 071°18'410.7
2018-Jan-11 10:30N 41°41' W 071°19'5 9.4
2018-Jan-11 10:00N 41°45' W 071°22'4 7.1
2018-Jan-11 09:30N 41°48' W 071°24'0 0.3
2018-Jan-11 08:54N 41°48' W 071°24'0 0.1
2018-Jan-11 08:30N 41°48' W 071°24'0 0.0
2018-Jan-11 07:59N 41°48' W 071°24'0 0.0
2018-Jan-11 07:30N 41°48' W 071°24'0 0.0
2018-Jan-11 07:00N 41°48' W 071°24'0 0.0
2018-Jan-11 06:29N 41°48' W 071°24'0 0.0
2018-Jan-11 03:38N 41°48' W 071°24'0 0.0
2018-Jan-11 02:32N 41°48' W 071°24'0 0.0
2018-Jan-11 02:26N 41°48' W 071°24'0 0.0
2018-Jan-11 01:50N 41°48' W 071°24'0 0.0
2018-Jan-11 01:26N 41°48' W 071°24'0 0.0
2018-Jan-11 00:56N 41°48' W 071°24'0 0.0
2018-Jan-11 00:26N 41°48' W 071°24'0 0.0
2018-Jan-10 23:56N 41°48' W 071°24'0 0.0
2018-Jan-10 23:26N 41°48' W 071°24'0 0.0
2018-Jan-10 22:44N 41°48' W 071°24'0 0.0
2018-Jan-10 22:20N 41°48' W 071°24'0 0.0
2018-Jan-10 20:57N 41°48' W 071°24'1 1.9
2018-Jan-10 20:30N 41°49' W 071°24'0 0.1
2018-Jan-10 19:48N 41°49' W 071°24'0 0.0
2018-Jan-10 19:30N 41°49' W 071°24'0 0.0
2018-Jan-10 19:00N 41°49' W 071°24'0 0.0
2018-Jan-10 18:30N 41°49' W 071°24'0 0.0
2018-Jan-10 18:00N 41°49' W 071°24'0 0.0
2018-Jan-10 17:30N 41°49' W 071°24'0 0.0
2018-Jan-10 17:00N 41°49' W 071°24'1 0.5
2018-Jan-10 15:30N 41°48' W 071°24'0 0.1
2018-Jan-10 15:00N 41°48' W 071°24'1 2.4
2018-Jan-10 14:29N 41°47' W 071°23'4 7.9
2018-Jan-10 14:00N 41°44' W 071°21'4 8.5
2018-Jan-10 13:30N 41°40' W 071°19'5 8.4
2018-Jan-10 12:57N 41°35' W 071°18'4 9.0
2018-Jan-10 12:28N 41°31' W 071°20'126 8.3
2018-Jan-09 21:10N 40°46' W 073°57'1 9.1
2018-Jan-09 21:01N 40°44' W 073°58'4 8.6
2018-Jan-09 20:31N 40°41' W 074°01'4 8.4
2018-Jan-09 19:59N 40°39' W 074°06'4 0.1
2018-Jan-08 17:04N 40°39' W 074°11'4 8.9
2018-Jan-08 16:34N 40°39' W 074°06'1 9.7
2018-Jan-08 16:29N 40°39' W 074°05'2 4.3
2018-Jan-08 15:59N 40°40' W 074°02'0 0.1
2018-Jan-08 15:26N 40°40' W 074°02'0 0.1
2018-Jan-08 14:59N 40°40' W 074°02'0 0.1
2018-Jan-08 14:29N 40°40' W 074°02'0 0.1
2018-Jan-08 13:56N 40°40' W 074°02'0 0.1
2018-Jan-08 13:26N 40°40' W 074°02'0 0.1
2018-Jan-08 12:59N 40°40' W 074°02'0 0.1
2018-Jan-08 12:29N 40°40' W 074°02'0 0.0
2018-Jan-08 11:56N 40°40' W 074°02'0 0.0
2018-Jan-08 11:29N 40°40' W 074°02'0 0.1
2018-Jan-08 10:59N 40°40' W 074°02'0 0.1
2018-Jan-08 10:29N 40°40' W 074°02'0 0.1
2018-Jan-08 09:59N 40°40' W 074°02'0 0.1
2018-Jan-08 09:29N 40°40' W 074°02'0 0.0
2018-Jan-08 08:59N 40°40' W 074°02'0 0.1
2018-Jan-08 08:23N 40°40' W 074°02'0 0.0
2018-Jan-08 07:59N 40°40' W 074°02'0 0.0
2018-Jan-08 07:29N 40°40' W 074°02'0 0.0
2018-Jan-08 06:56N 40°40' W 074°02'0 0.0
2018-Jan-08 06:26N 40°40' W 074°02'0 0.0
2018-Jan-08 05:59N 40°40' W 074°02'  

Dump ship's entire track history